sensor_id;sensor_type;location;lat;lon;timestamp;pressure;altitude;pressure_sealevel;temperature;humidity
70072;BME280;57434;42.794;23.302;2023-03-03T00:00:56;95762.91;;;3.38;84.78
70072;BME280;57434;42.794;23.302;2023-03-03T00:01:58;95728.50;;;3.11;85.05
70072;BME280;57434;42.794;23.302;2023-03-03T00:03:04;95619.16;;;2.48;84.90
70072;BME280;57434;42.794;23.302;2023-03-03T00:04:06;95756.94;;;3.53;85.08
70072;BME280;57434;42.794;23.302;2023-03-03T00:05:08;95784.56;;;3.56;84.71
70072;BME280;57434;42.794;23.302;2023-03-03T00:06:12;95672.84;;;3.05;84.47
70072;BME280;57434;42.794;23.302;2023-03-03T00:07:14;95737.41;;;3.56;84.56
70072;BME280;57434;42.794;23.302;2023-03-03T00:08:17;95742.50;;;3.58;84.25
70072;BME280;57434;42.794;23.302;2023-03-03T00:09:19;95611.75;;;2.70;84.28
70072;BME280;57434;42.794;23.302;2023-03-03T00:10:21;95695.69;;;3.34;84.25
70072;BME280;57434;42.794;23.302;2023-03-03T00:11:23;95751.84;;;3.64;84.55
70072;BME280;57434;42.794;23.302;2023-03-03T00:12:27;95753.84;;;3.63;84.39
70072;BME280;57434;42.794;23.302;2023-03-03T00:13:31;95769.56;;;3.66;84.28
70072;BME280;57434;42.794;23.302;2023-03-03T00:14:33;95670.06;;;3.05;84.13
70072;BME280;57434;42.794;23.302;2023-03-03T00:15:35;95769.25;;;3.64;84.09
70072;BME280;57434;42.794;23.302;2023-03-03T00:16:37;95617.84;;;2.78;84.14
70072;BME280;57434;42.794;23.302;2023-03-03T00:17:39;95754.72;;;3.60;84.53
70072;BME280;57434;42.794;23.302;2023-03-03T00:18:46;95745.72;;;3.56;84.37
70072;BME280;57434;42.794;23.302;2023-03-03T00:19:48;95730.41;;;3.52;84.33
70072;BME280;57434;42.794;23.302;2023-03-03T00:20:56;95582.72;;;2.50;84.39
70072;BME280;57434;42.794;23.302;2023-03-03T00:21:58;95730.84;;;3.50;84.73
70072;BME280;57434;42.794;23.302;2023-03-03T00:24:21;95755.47;;;3.48;85.05
70072;BME280;57434;42.794;23.302;2023-03-03T00:25:30;95634.03;;;2.80;85.20
70072;BME280;57434;42.794;23.302;2023-03-03T00:26:35;95740.38;;;3.49;85.41
70072;BME280;57434;42.794;23.302;2023-03-03T00:27:38;95746.03;;;3.46;85.65
70072;BME280;57434;42.794;23.302;2023-03-03T00:28:48;95742.94;;;3.43;85.84
70072;BME280;57434;42.794;23.302;2023-03-03T00:29:52;95728.53;;;3.36;85.98
70072;BME280;57434;42.794;23.302;2023-03-03T00:31:00;95717.09;;;3.34;85.72
70072;BME280;57434;42.794;23.302;2023-03-03T00:34:29;95734.63;;;3.56;85.17
70072;BME280;57434;42.794;23.302;2023-03-03T00:35:31;95572.41;;;2.50;84.90
70072;BME280;57434;42.794;23.302;2023-03-03T00:36:36;95737.06;;;3.54;85.08
70072;BME280;57434;42.794;23.302;2023-03-03T00:37:39;95723.75;;;3.49;85.02
70072;BME280;57434;42.794;23.302;2023-03-03T00:38:42;95731.75;;;3.60;84.97
70072;BME280;57434;42.794;23.302;2023-03-03T00:39:43;95729.94;;;3.40;85.26
70072;BME280;57434;42.794;23.302;2023-03-03T00:40:46;95724.84;;;3.52;85.07
70072;BME280;57434;42.794;23.302;2023-03-03T00:41:48;95718.88;;;3.53;85.00
70072;BME280;57434;42.794;23.302;2023-03-03T00:42:55;95727.75;;;3.61;85.23
70072;BME280;57434;42.794;23.302;2023-03-03T00:43:58;95692.03;;;3.25;85.45
70072;BME280;57434;42.794;23.302;2023-03-03T00:45:00;95708.34;;;3.35;85.53
70072;BME280;57434;42.794;23.302;2023-03-03T00:46:02;95723.84;;;3.46;85.87
70072;BME280;57434;42.794;23.302;2023-03-03T00:47:34;95744.28;;;3.52;85.63
70072;BME280;57434;42.794;23.302;2023-03-03T00:49:38;95707.34;;;3.29;85.43
70072;BME280;57434;42.794;23.302;2023-03-03T00:50:42;95723.44;;;3.60;85.20
70072;BME280;57434;42.794;23.302;2023-03-03T00:51:44;95689.69;;;3.49;85.06
70072;BME280;57434;42.794;23.302;2023-03-03T00:53:10;95712.00;;;3.58;85.19
70072;BME280;57434;42.794;23.302;2023-03-03T00:54:12;95684.03;;;3.39;85.36
70072;BME280;57434;42.794;23.302;2023-03-03T00:55:14;95646.22;;;3.20;85.38
70072;BME280;57434;42.794;23.302;2023-03-03T00:56:15;95694.69;;;3.41;85.14
70072;BME280;57434;42.794;23.302;2023-03-03T00:57:17;95720.97;;;3.49;85.14
70072;BME280;57434;42.794;23.302;2023-03-03T00:58:20;95685.91;;;3.42;85.07
70072;BME280;57434;42.794;23.302;2023-03-03T00:59:22;95704.78;;;3.60;84.98
70072;BME280;57434;42.794;23.302;2023-03-03T01:00:24;95716.06;;;3.66;84.94
70072;BME280;57434;42.794;23.302;2023-03-03T01:01:25;95701.44;;;3.65;84.63
70072;BME280;57434;42.794;23.302;2023-03-03T01:02:27;95698.19;;;3.67;84.70
70072;BME280;57434;42.794;23.302;2023-03-03T01:03:29;95674.50;;;3.40;85.06
70072;BME280;57434;42.794;23.302;2023-03-03T01:04:31;95684.03;;;3.52;85.04
70072;BME280;57434;42.794;23.302;2023-03-03T01:05:33;95693.25;;;3.36;85.39
70072;BME280;57434;42.794;23.302;2023-03-03T01:06:35;95609.88;;;2.93;85.31
70072;BME280;57434;42.794;23.302;2023-03-03T01:07:37;95672.81;;;3.43;85.43
70072;BME280;57434;42.794;23.302;2023-03-03T01:08:38;95531.66;;;2.51;85.07
70072;BME280;57434;42.794;23.302;2023-03-03T01:09:40;95690.25;;;3.43;85.18
70072;BME280;57434;42.794;23.302;2023-03-03T01:10:48;95694.03;;;3.62;85.11
70072;BME280;57434;42.794;23.302;2023-03-03T01:11:50;95685.69;;;3.50;84.91
70072;BME280;57434;42.794;23.302;2023-03-03T01:12:53;95552.69;;;2.73;84.76
70072;BME280;57434;42.794;23.302;2023-03-03T01:13:55;95689.47;;;3.56;84.72
70072;BME280;57434;42.794;23.302;2023-03-03T01:14:57;95694.88;;;3.72;84.50
70072;BME280;57434;42.794;23.302;2023-03-03T01:16:00;95543.94;;;2.75;84.51
70072;BME280;57434;42.794;23.302;2023-03-03T01:17:03;95655.06;;;3.40;84.85
70072;BME280;57434;42.794;23.302;2023-03-03T01:18:05;95686.25;;;3.57;84.82
70072;BME280;57434;42.794;23.302;2023-03-03T01:19:08;95680.94;;;3.63;84.87
70072;BME280;57434;42.794;23.302;2023-03-03T01:20:12;95686.81;;;3.52;85.16
70072;BME280;57434;42.794;23.302;2023-03-03T01:21:16;95674.28;;;3.48;85.12
70072;BME280;57434;42.794;23.302;2023-03-03T01:22:18;95687.03;;;3.58;85.02
70072;BME280;57434;42.794;23.302;2023-03-03T01:23:20;95514.25;;;2.50;84.84
70072;BME280;57434;42.794;23.302;2023-03-03T01:24:22;95523.44;;;2.60;84.75
70072;BME280;57434;42.794;23.302;2023-03-03T01:25:24;95691.66;;;3.73;84.82
70072;BME280;57434;42.794;23.302;2023-03-03T01:26:26;95678.22;;;3.72;84.54
70072;BME280;57434;42.794;23.302;2023-03-03T01:27:29;95591.44;;;3.12;84.28
70072;BME280;57434;42.794;23.302;2023-03-03T01:28:32;95690.09;;;3.72;84.31
70072;BME280;57434;42.794;23.302;2023-03-03T01:29:33;95678.66;;;3.70;84.52
70072;BME280;57434;42.794;23.302;2023-03-03T01:30:35;95558.78;;;2.81;84.55
70072;BME280;57434;42.794;23.302;2023-03-03T01:31:37;95687.00;;;3.70;84.62
70072;BME280;57434;42.794;23.302;2023-03-03T01:32:39;95537.38;;;2.56;84.57
70072;BME280;57434;42.794;23.302;2023-03-03T01:33:41;95518.56;;;2.51;84.26
70072;BME280;57434;42.794;23.302;2023-03-03T01:34:43;95691.44;;;3.68;84.59
70072;BME280;57434;42.794;23.302;2023-03-03T01:35:46;95693.34;;;3.58;84.72
70072;BME280;57434;42.794;23.302;2023-03-03T01:36:48;95651.44;;;3.31;84.37
70072;BME280;57434;42.794;23.302;2023-03-03T01:37:50;95509.91;;;2.62;84.23
70072;BME280;57434;42.794;23.302;2023-03-03T01:38:52;95594.09;;;3.15;84.21
70072;BME280;57434;42.794;23.302;2023-03-03T01:39:54;95677.22;;;3.66;84.14
70072;BME280;57434;42.794;23.302;2023-03-03T01:40:57;95620.06;;;3.34;84.07
70072;BME280;57434;42.794;23.302;2023-03-03T01:42:02;95677.66;;;3.77;84.07
70072;BME280;57434;42.794;23.302;2023-03-03T01:43:04;95669.25;;;3.68;83.90
70072;BME280;57434;42.794;23.302;2023-03-03T01:44:08;95666.78;;;3.70;83.95
70072;BME280;57434;42.794;23.302;2023-03-03T01:45:21;95668.28;;;3.62;83.76
70072;BME280;57434;42.794;23.302;2023-03-03T01:47:32;95669.25;;;3.68;83.80
70072;BME280;57434;42.794;23.302;2023-03-03T01:48:38;95682.66;;;3.82;83.68
70072;BME280;57434;42.794;23.302;2023-03-03T01:50:11;95685.78;;;3.71;84.22
70072;BME280;57434;42.794;23.302;2023-03-03T01:51:20;95680.00;;;3.66;84.42
70072;BME280;57434;42.794;23.302;2023-03-03T01:52:30;95677.22;;;3.66;84.46
70072;BME280;57434;42.794;23.302;2023-03-03T01:53:40;95685.00;;;3.71;84.55
70072;BME280;57434;42.794;23.302;2023-03-03T01:54:46;95676.59;;;3.62;84.52
70072;BME280;57434;42.794;23.302;2023-03-03T01:55:51;95688.47;;;3.62;84.76
70072;BME280;57434;42.794;23.302;2023-03-03T01:56:58;95675.16;;;3.45;85.06
70072;BME280;57434;42.794;23.302;2023-03-03T01:58:09;95665.72;;;3.42;85.42
70072;BME280;57434;42.794;23.302;2023-03-03T01:59:21;95660.63;;;3.40;85.52
70072;BME280;57434;42.794;23.302;2023-03-03T02:00:25;95674.03;;;3.55;85.64
70072;BME280;57434;42.794;23.302;2023-03-03T02:01:30;95681.69;;;3.51;85.66
70072;BME280;57434;42.794;23.302;2023-03-03T02:02:33;95673.50;;;3.47;85.89
70072;BME280;57434;42.794;23.302;2023-03-03T02:03:36;95678.16;;;3.50;85.94
70072;BME280;57434;42.794;23.302;2023-03-03T02:04:38;95599.91;;;3.08;85.53
70072;BME280;57434;42.794;23.302;2023-03-03T02:07:43;95546.03;;;2.58;85.63
70072;BME280;57434;42.794;23.302;2023-03-03T02:10:03;95672.06;;;3.55;85.73
70072;BME280;57434;42.794;23.302;2023-03-03T02:11:07;95690.81;;;3.64;85.61
70072;BME280;57434;42.794;23.302;2023-03-03T02:12:11;95682.91;;;3.62;85.61
70072;BME280;57434;42.794;23.302;2023-03-03T02:13:14;95680.16;;;3.62;85.47
70072;BME280;57434;42.794;23.302;2023-03-03T02:14:17;95531.75;;;2.60;85.18
70072;BME280;57434;42.794;23.302;2023-03-03T02:16:21;95574.72;;;2.90;85.16
70072;BME280;57434;42.794;23.302;2023-03-03T02:17:23;95649.63;;;3.50;85.14
70072;BME280;57434;42.794;23.302;2023-03-03T02:18:26;95676.78;;;3.67;85.20
70072;BME280;57434;42.794;23.302;2023-03-03T02:19:41;95507.72;;;2.69;84.91
70072;BME280;57434;42.794;23.302;2023-03-03T02:20:57;95678.47;;;3.65;85.39
70072;BME280;57434;42.794;23.302;2023-03-03T02:22:02;95622.81;;;3.21;85.38
70072;BME280;57434;42.794;23.302;2023-03-03T02:24:53;95670.72;;;3.60;85.49
70072;BME280;57434;42.794;23.302;2023-03-03T02:27:03;95608.31;;;3.17;85.45
70072;BME280;57434;42.794;23.302;2023-03-03T02:28:05;95633.91;;;3.34;85.35
70072;BME280;57434;42.794;23.302;2023-03-03T02:29:08;95676.78;;;3.67;85.49
70072;BME280;57434;42.794;23.302;2023-03-03T02:30:16;95669.81;;;3.63;85.26
70072;BME280;57434;42.794;23.302;2023-03-03T02:31:22;95658.47;;;3.70;85.11
70072;BME280;57434;42.794;23.302;2023-03-03T02:32:24;95488.19;;;2.60;84.84
70072;BME280;57434;42.794;23.302;2023-03-03T02:33:27;95513.81;;;2.77;84.51
70072;BME280;57434;42.794;23.302;2023-03-03T02:34:29;95666.25;;;3.75;84.54
70072;BME280;57434;42.794;23.302;2023-03-03T02:35:35;95662.34;;;3.72;84.44
70072;BME280;57434;42.794;23.302;2023-03-03T02:36:38;95663.69;;;3.68;84.57
70072;BME280;57434;42.794;23.302;2023-03-03T02:37:40;95661.00;;;3.77;84.36
70072;BME280;57434;42.794;23.302;2023-03-03T02:39:55;95620.25;;;3.39;83.94
70072;BME280;57434;42.794;23.302;2023-03-03T02:41:18;95663.13;;;3.86;84.14
70072;BME280;57434;42.794;23.302;2023-03-03T02:42:26;95662.13;;;3.67;84.10
70072;BME280;57434;42.794;23.302;2023-03-03T02:44:57;95663.47;;;3.75;84.26
70072;BME280;57434;42.794;23.302;2023-03-03T02:45:59;95678.66;;;3.70;84.38
70072;BME280;57434;42.794;23.302;2023-03-03T02:47:01;95647.66;;;3.50;85.11
70072;BME280;57434;42.794;23.302;2023-03-03T02:48:02;95534.50;;;2.60;84.77
70072;BME280;57434;42.794;23.302;2023-03-03T02:49:06;95672.06;;;3.55;85.21
70072;BME280;57434;42.794;23.302;2023-03-03T02:50:09;95620.59;;;3.29;85.28
70072;BME280;57434;42.794;23.302;2023-03-03T02:51:11;95627.03;;;3.26;85.37
70072;BME280;57434;42.794;23.302;2023-03-03T02:52:13;95651.41;;;3.43;85.41
70072;BME280;57434;42.794;23.302;2023-03-03T02:53:15;95699.22;;;3.60;85.32
70072;BME280;57434;42.794;23.302;2023-03-03T02:54:19;95648.31;;;3.41;85.59
70072;BME280;57434;42.794;23.302;2023-03-03T02:55:21;95524.00;;;2.55;85.44
70072;BME280;57434;42.794;23.302;2023-03-03T02:56:23;95665.72;;;3.42;86.05
70072;BME280;57434;42.794;23.302;2023-03-03T02:57:25;95662.28;;;3.51;86.08
70072;BME280;57434;42.794;23.302;2023-03-03T02:58:26;95658.63;;;3.54;85.88
70072;BME280;57434;42.794;23.302;2023-03-03T02:59:28;95663.28;;;3.57;85.72
70072;BME280;57434;42.794;23.302;2023-03-03T03:00:30;95542.47;;;2.58;85.86
70072;BME280;57434;42.794;23.302;2023-03-03T03:01:34;95663.63;;;3.46;86.17
70072;BME280;57434;42.794;23.302;2023-03-03T03:02:36;95656.53;;;3.32;86.00
70072;BME280;57434;42.794;23.302;2023-03-03T03:03:38;95673.84;;;3.36;86.13
70072;BME280;57434;42.794;23.302;2023-03-03T03:04:40;95438.38;;;1.97;86.15
70072;BME280;57434;42.794;23.302;2023-03-03T03:05:42;95494.41;;;2.39;86.08
70072;BME280;57434;42.794;23.302;2023-03-03T03:06:45;95532.09;;;2.74;85.96
70072;BME280;57434;42.794;23.302;2023-03-03T03:07:48;95661.72;;;3.56;86.07
70072;BME280;57434;42.794;23.302;2023-03-03T03:08:50;95614.63;;;3.18;86.06
70072;BME280;57434;42.794;23.302;2023-03-03T03:09:51;95635.91;;;3.33;86.11
70072;BME280;57434;42.794;23.302;2023-03-03T03:10:53;95624.50;;;3.31;86.00
70072;BME280;57434;42.794;23.302;2023-03-03T03:11:55;95516.56;;;2.64;86.06
70072;BME280;57434;42.794;23.302;2023-03-03T03:12:57;95656.97;;;3.56;85.93
70072;BME280;57434;42.794;23.302;2023-03-03T03:13:59;95491.44;;;2.46;85.87
70072;BME280;57434;42.794;23.302;2023-03-03T03:15:00;95555.78;;;3.01;85.78
70072;BME280;57434;42.794;23.302;2023-03-03T03:16:02;95659.06;;;3.65;85.71
70072;BME280;57434;42.794;23.302;2023-03-03T03:17:04;95682.69;;;3.57;85.76
70072;BME280;57434;42.794;23.302;2023-03-03T03:18:06;95660.72;;;3.50;85.91
70072;BME280;57434;42.794;23.302;2023-03-03T03:19:08;95658.44;;;3.35;85.71
70072;BME280;57434;42.794;23.302;2023-03-03T03:20:10;95652.63;;;3.42;85.74
70072;BME280;57434;42.794;23.302;2023-03-03T03:21:12;95642.88;;;3.51;85.89
70072;BME280;57434;42.794;23.302;2023-03-03T03:22:14;95626.69;;;3.49;85.87
70072;BME280;57434;42.794;23.302;2023-03-03T03:23:16;95617.03;;;3.41;85.78
70072;BME280;57434;42.794;23.302;2023-03-03T03:24:18;95637.09;;;3.58;85.90
70072;BME280;57434;42.794;23.302;2023-03-03T03:25:20;95647.97;;;3.65;85.86
70072;BME280;57434;42.794;23.302;2023-03-03T03:26:22;95652.63;;;3.42;86.10
70072;BME280;57434;42.794;23.302;2023-03-03T03:27:23;95633.31;;;3.52;86.09
70072;BME280;57434;42.794;23.302;2023-03-03T03:28:25;95664.63;;;3.52;86.26
70072;BME280;57434;42.794;23.302;2023-03-03T03:29:27;95654.41;;;3.49;86.42
70072;BME280;57434;42.794;23.302;2023-03-03T03:30:29;95678.59;;;3.49;86.55
70072;BME280;57434;42.794;23.302;2023-03-03T03:31:31;95580.16;;;3.06;86.48
70072;BME280;57434;42.794;23.302;2023-03-03T03:32:33;95654.97;;;3.57;86.50
70072;BME280;57434;42.794;23.302;2023-03-03T03:33:35;95641.47;;;3.33;86.52
70072;BME280;57434;42.794;23.302;2023-03-03T03:34:37;95644.69;;;3.32;86.97
70072;BME280;57434;42.794;23.302;2023-03-03T03:35:39;95622.50;;;3.32;86.94
70072;BME280;57434;42.794;23.302;2023-03-03T03:36:41;95645.00;;;3.21;87.22
70072;BME280;57434;42.794;23.302;2023-03-03T03:37:43;95493.53;;;2.42;87.20
70072;BME280;57434;42.794;23.302;2023-03-03T03:38:45;95521.53;;;2.57;87.28
70072;BME280;57434;42.794;23.302;2023-03-03T03:39:46;95615.63;;;3.24;87.26
70072;BME280;57434;42.794;23.302;2023-03-03T03:40:48;95634.44;;;3.41;87.22
70072;BME280;57434;42.794;23.302;2023-03-03T03:41:50;95598.75;;;3.18;87.08
70072;BME280;57434;42.794;23.302;2023-03-03T03:42:53;95634.75;;;3.56;86.92
70072;BME280;57434;42.794;23.302;2023-03-03T03:43:55;95619.13;;;3.50;86.62
70072;BME280;57434;42.794;23.302;2023-03-03T03:44:57;95630.66;;;3.61;86.45
70072;BME280;57434;42.794;23.302;2023-03-03T03:45:58;95630.44;;;3.55;86.56
70072;BME280;57434;42.794;23.302;2023-03-03T03:47:00;95638.75;;;3.55;86.62
70072;BME280;57434;42.794;23.302;2023-03-03T03:48:02;95481.69;;;2.54;86.26
70072;BME280;57434;42.794;23.302;2023-03-03T03:49:04;95584.34;;;3.23;86.28
70072;BME280;57434;42.794;23.302;2023-03-03T03:50:06;95621.00;;;3.53;86.25
70072;BME280;57434;42.794;23.302;2023-03-03T03:51:10;95524.53;;;2.88;85.95
70072;BME280;57434;42.794;23.302;2023-03-03T03:52:12;95626.22;;;3.51;86.10
70072;BME280;57434;42.794;23.302;2023-03-03T03:53:14;95629.09;;;3.60;85.96
70072;BME280;57434;42.794;23.302;2023-03-03T03:54:16;95631.31;;;3.65;85.86
70072;BME280;57434;42.794;23.302;2023-03-03T03:55:18;95634.72;;;3.69;85.65
70072;BME280;57434;42.794;23.302;2023-03-03T03:56:20;95465.16;;;2.63;85.76
70072;BME280;57434;42.794;23.302;2023-03-03T03:57:21;95612.38;;;3.51;85.79
70072;BME280;57434;42.794;23.302;2023-03-03T03:58:26;95597.31;;;3.14;86.14
70072;BME280;57434;42.794;23.302;2023-03-03T03:59:28;95617.25;;;3.47;86.29
70072;BME280;57434;42.794;23.302;2023-03-03T04:00:30;95631.44;;;3.61;86.06
70072;BME280;57434;42.794;23.302;2023-03-03T04:01:32;95629.00;;;3.63;86.04
70072;BME280;57434;42.794;23.302;2023-03-03T04:02:35;95624.84;;;3.68;86.19
70072;BME280;57434;42.794;23.302;2023-03-03T04:03:37;95617.44;;;3.65;86.02
70072;BME280;57434;42.794;23.302;2023-03-03T04:04:38;95619.13;;;3.50;86.23
70072;BME280;57434;42.794;23.302;2023-03-03T04:05:41;95627.47;;;3.37;86.75
70072;BME280;57434;42.794;23.302;2023-03-03T04:06:42;95479.56;;;2.58;86.66
70072;BME280;57434;42.794;23.302;2023-03-03T04:07:44;95628.88;;;3.54;86.89
70072;BME280;57434;42.794;23.302;2023-03-03T04:08:46;95606.59;;;3.45;86.88
70072;BME280;57434;42.794;23.302;2023-03-03T04:09:48;95635.09;;;3.58;86.75
70072;BME280;57434;42.794;23.302;2023-03-03T04:10:50;95627.44;;;3.62;86.77
70072;BME280;57434;42.794;23.302;2023-03-03T04:11:51;95617.78;;;3.54;86.91
70072;BME280;57434;42.794;23.302;2023-03-03T04:12:53;95607.81;;;3.44;86.96
70072;BME280;57434;42.794;23.302;2023-03-03T04:13:55;95597.94;;;3.43;86.93
70072;BME280;57434;42.794;23.302;2023-03-03T04:14:57;95553.75;;;3.14;87.10
70072;BME280;57434;42.794;23.302;2023-03-03T04:16:00;95632.78;;;3.44;87.18
70072;BME280;57434;42.794;23.302;2023-03-03T04:17:02;95631.44;;;3.61;87.18
70072;BME280;57434;42.794;23.302;2023-03-03T04:18:03;95601.28;;;3.38;87.31
70072;BME280;57434;42.794;23.302;2023-03-03T04:19:05;95612.03;;;3.49;87.36
70072;BME280;57434;42.794;23.302;2023-03-03T04:20:07;95623.56;;;3.60;87.50
70072;BME280;57434;42.794;23.302;2023-03-03T04:21:12;95465.59;;;2.62;87.28
70072;BME280;57434;42.794;23.302;2023-03-03T04:22:14;95627.88;;;3.61;87.39
70072;BME280;57434;42.794;23.302;2023-03-03T04:23:16;95612.69;;;3.53;87.43
70072;BME280;57434;42.794;23.302;2023-03-03T04:24:17;95622.56;;;3.54;87.65
70072;BME280;57434;42.794;23.302;2023-03-03T04:25:19;95576.25;;;3.29;87.76
70072;BME280;57434;42.794;23.302;2023-03-03T04:26:21;95622.69;;;3.50;88.18
70072;BME280;57434;42.794;23.302;2023-03-03T04:27:23;95451.09;;;2.32;88.41
70072;BME280;57434;42.794;23.302;2023-03-03T04:28:24;95622.56;;;3.41;88.59
70072;BME280;57434;42.794;23.302;2023-03-03T04:29:26;95480.56;;;2.39;88.73
70072;BME280;57434;42.794;23.302;2023-03-03T04:30:28;95579.81;;;3.17;89.02
70072;BME280;57434;42.794;23.302;2023-03-03T04:31:30;95641.78;;;3.35;89.06
70072;BME280;57434;42.794;23.302;2023-03-03T04:32:32;95578.63;;;3.05;88.98
70072;BME280;57434;42.794;23.302;2023-03-03T04:33:34;95611.28;;;3.35;89.03
70072;BME280;57434;42.794;23.302;2023-03-03T04:34:36;95612.91;;;3.46;88.92
70072;BME280;57434;42.794;23.302;2023-03-03T04:35:38;95387.59;;;1.91;88.96
70072;BME280;57434;42.794;23.302;2023-03-03T04:36:39;95474.59;;;2.53;88.84
70072;BME280;57434;42.794;23.302;2023-03-03T04:37:41;95610.06;;;3.36;89.14
70072;BME280;57434;42.794;23.302;2023-03-03T04:38:43;95621.47;;;3.51;89.31
70072;BME280;57434;42.794;23.302;2023-03-03T04:39:45;95589.56;;;3.34;89.16
70072;BME280;57434;42.794;23.302;2023-03-03T04:40:46;95568.72;;;3.17;88.86
70072;BME280;57434;42.794;23.302;2023-03-03T04:41:48;95621.25;;;3.46;89.06
70072;BME280;57434;42.794;23.302;2023-03-03T04:42:50;95607.94;;;3.40;88.90
70072;BME280;57434;42.794;23.302;2023-03-03T04:43:52;95559.19;;;3.18;88.74
70072;BME280;57434;42.794;23.302;2023-03-03T04:44:54;95650.06;;;3.61;88.75
70072;BME280;57434;42.794;23.302;2023-03-03T04:45:56;95626.56;;;3.53;88.76
70072;BME280;57434;42.794;23.302;2023-03-03T04:46:58;95542.16;;;2.94;89.01
70072;BME280;57434;42.794;23.302;2023-03-03T04:48:00;95448.56;;;2.38;89.36
70072;BME280;57434;42.794;23.302;2023-03-03T04:49:01;95579.50;;;3.02;89.09
70072;BME280;57434;42.794;23.302;2023-03-03T04:50:04;95624.44;;;3.57;89.18
70072;BME280;57434;42.794;23.302;2023-03-03T04:51:06;95628.34;;;3.47;88.85
70072;BME280;57434;42.794;23.302;2023-03-03T04:52:08;95612.38;;;3.51;89.04
70072;BME280;57434;42.794;23.302;2023-03-03T04:53:09;95614.25;;;3.54;88.73
70072;BME280;57434;42.794;23.302;2023-03-03T04:54:11;95570.16;;;3.34;88.62
70072;BME280;57434;42.794;23.302;2023-03-03T04:55:13;95625.28;;;3.66;88.68
70072;BME280;57434;42.794;23.302;2023-03-03T04:56:15;95477.13;;;2.60;88.22
70072;BME280;57434;42.794;23.302;2023-03-03T04:57:17;95626.50;;;3.65;88.47
70072;BME280;57434;42.794;23.302;2023-03-03T04:58:19;95617.91;;;3.51;88.26
70072;BME280;57434;42.794;23.302;2023-03-03T04:59:21;95613.91;;;3.52;88.31
70072;BME280;57434;42.794;23.302;2023-03-03T05:00:23;95482.22;;;2.62;88.34
70072;BME280;57434;42.794;23.302;2023-03-03T05:01:25;95617.47;;;3.52;88.21
70072;BME280;57434;42.794;23.302;2023-03-03T05:02:27;95623.78;;;3.53;88.36
70072;BME280;57434;42.794;23.302;2023-03-03T05:03:28;95470.47;;;2.58;88.22
70072;BME280;57434;42.794;23.302;2023-03-03T05:04:30;95629.78;;;3.51;88.30
70072;BME280;57434;42.794;23.302;2023-03-03T05:05:32;95623.78;;;3.53;88.63
70072;BME280;57434;42.794;23.302;2023-03-03T05:06:34;95586.34;;;3.35;88.54
70072;BME280;57434;42.794;23.302;2023-03-03T05:07:35;95618.78;;;3.48;88.93
70072;BME280;57434;42.794;23.302;2023-03-03T05:08:38;95590.31;;;3.34;89.22
70072;BME280;57434;42.794;23.302;2023-03-03T05:09:39;95592.66;;;3.36;88.58
70072;BME280;57434;42.794;23.302;2023-03-03T05:10:41;95624.44;;;3.57;88.53
70072;BME280;57434;42.794;23.302;2023-03-03T05:11:43;95589.75;;;3.39;88.73
70072;BME280;57434;42.794;23.302;2023-03-03T05:12:45;95655.41;;;3.55;88.84
70072;BME280;57434;42.794;23.302;2023-03-03T05:13:47;95498.72;;;2.78;88.59
70072;BME280;57434;42.794;23.302;2023-03-03T05:14:48;95515.53;;;2.96;88.22
70072;BME280;57434;42.794;23.302;2023-03-03T05:15:51;95591.06;;;3.48;87.99
70072;BME280;57434;42.794;23.302;2023-03-03T05:16:54;95637.81;;;3.71;88.29
70072;BME280;57434;42.794;23.302;2023-03-03T05:17:55;95633.94;;;3.68;88.48
70072;BME280;57434;42.794;23.302;2023-03-03T05:18:57;95614.25;;;3.54;88.54
70072;BME280;57434;42.794;23.302;2023-03-03T05:19:59;95612.47;;;3.47;88.41
70072;BME280;57434;42.794;23.302;2023-03-03T05:21:01;95647.97;;;3.65;88.25
70072;BME280;57434;42.794;23.302;2023-03-03T05:22:03;95450.91;;;2.52;88.06
70072;BME280;57434;42.794;23.302;2023-03-03T05:23:04;95475.13;;;2.61;88.31
70072;BME280;57434;42.794;23.302;2023-03-03T05:24:07;95608.38;;;3.52;88.58
70072;BME280;57434;42.794;23.302;2023-03-03T05:25:09;95616.63;;;3.30;88.88
70072;BME280;57434;42.794;23.302;2023-03-03T05:26:11;95646.31;;;3.55;89.54
70072;BME280;57434;42.794;23.302;2023-03-03T05:27:13;95658.06;;;3.59;89.28
70072;BME280;57434;42.794;23.302;2023-03-03T05:28:15;95643.34;;;3.36;89.49
70072;BME280;57434;42.794;23.302;2023-03-03T05:29:17;95601.66;;;3.27;89.65
70072;BME280;57434;42.794;23.302;2023-03-03T05:30:19;95640.97;;;3.60;89.59
70072;BME280;57434;42.794;23.302;2023-03-03T05:31:21;95637.63;;;3.65;89.59
70072;BME280;57434;42.794;23.302;2023-03-03T05:32:23;95616.41;;;3.37;89.32
70072;BME280;57434;42.794;23.302;2023-03-03T05:33:25;95639.59;;;3.78;89.34
70072;BME280;57434;42.794;23.302;2023-03-03T05:34:27;95598.50;;;3.51;89.35
70072;BME280;57434;42.794;23.302;2023-03-03T05:35:30;95464.28;;;2.66;89.03
70072;BME280;57434;42.794;23.302;2023-03-03T05:36:31;95520.97;;;3.00;88.98
70072;BME280;57434;42.794;23.302;2023-03-03T05:37:33;95577.09;;;3.38;89.08
70072;BME280;57434;42.794;23.302;2023-03-03T05:38:35;95640.38;;;3.78;88.92
70072;BME280;57434;42.794;23.302;2023-03-03T05:39:37;95630.16;;;3.75;89.19
70072;BME280;57434;42.794;23.302;2023-03-03T05:40:38;95633.84;;;3.72;89.39
70072;BME280;57434;42.794;23.302;2023-03-03T05:41:40;95636.44;;;3.54;89.11
70072;BME280;57434;42.794;23.302;2023-03-03T05:42:42;95646.25;;;3.80;88.97
70072;BME280;57434;42.794;23.302;2023-03-03T05:43:44;95647.47;;;3.79;89.34
70072;BME280;57434;42.794;23.302;2023-03-03T05:44:46;95644.03;;;3.75;89.76
70072;BME280;57434;42.794;23.302;2023-03-03T05:45:56;95499.72;;;2.71;90.11
70072;BME280;57434;42.794;23.302;2023-03-03T05:46:58;95633.22;;;3.55;90.50
70072;BME280;57434;42.794;23.302;2023-03-03T05:48:00;95674.34;;;3.69;90.45
70072;BME280;57434;42.794;23.302;2023-03-03T05:49:02;95636.97;;;3.61;90.10
70072;BME280;57434;42.794;23.302;2023-03-03T05:50:04;95587.78;;;3.27;90.12